| time (UTC) | temp F | wind direction | speed MPH | gust MPH | rain 1hr in | rain 24hr in | rain mn in | humidity % | barometer mb |
| 20260509201553 | 63 | 158 | 1.0 | 8.0 | 0.00 | 0.67 | 0.35 | 64 | 1005.7 |
| 20260509200053 | 63 | 128 | 2.0 | 11.0 | 0.00 | 0.67 | 0.35 | 63 | 1005.8 |
| 20260509194551 | 63 | 243 | 2.0 | 10.0 | 0.00 | 0.67 | 0.35 | 65 | 1006.2 |
| 20260509193054 | 63 | 157 | 2.0 | 11.0 | 0.00 | 0.67 | 0.35 | 63 | 1006.2 |
| 20260509191553 | 62 | 243 | 1.0 | 7.0 | 0.00 | 0.67 | 0.35 | 67 | 1006.4 |
| 20260509190055 | 61 | 146 | 3.0 | 14.0 | 0.00 | 0.67 | 0.35 | 66 | 1006.9 |
| 20260509184552 | 61 | 0 | 2.0 | 11.0 | 0.00 | 0.67 | 0.35 | 72 | 1006.5 |
| 20260509183053 | 61 | 248 | 2.0 | 10.0 | 0.00 | 0.67 | 0.35 | 70 | 1006.4 |
| 20260509181608 | 59 | 0 | 2.0 | 8.0 | 0.00 | 0.67 | 0.35 | 76 | 1006.7 |
| 20260509180115 | 57 | 65 | 1.0 | 8.0 | 0.00 | 0.67 | 0.35 | 80 | 1006.9 |
| 20260509174556 | 57 | 136 | 3.0 | 10.0 | 0.00 | 0.67 | 0.35 | 82 | 1007.2 |
| 20260509173107 | 55 | 0 | 1.0 | 5.0 | 0.00 | 0.67 | 0.35 | 86 | 1007.3 |
| 20260509171554 | 54 | 0 | 1.0 | 5.0 | 0.00 | 0.67 | 0.35 | 90 | 1007.5 |
| 20260509170053 | 53 | 0 | 0.0 | 3.0 | 0.00 | 0.67 | 0.35 | 90 | 1007.7 |
| 20260509164553 | 53 | 213 | 1.0 | 6.0 | 0.00 | 0.67 | 0.35 | 90 | 1007.7 |
| 20260509163055 | 52 | 0 | 0.0 | 3.0 | 0.00 | 0.67 | 0.35 | 91 | 1007.6 |
| 20260509161601 | 51 | 0 | 0.0 | 5.0 | 0.00 | 0.67 | 0.35 | 91 | 1007.7 |
| 20260509160052 | 52 | 192 | 0.0 | 3.0 | 0.00 | 0.67 | 0.35 | 93 | 1007.6 |
| 20260509154602 | 51 | 117 | 0.0 | 4.0 | 0.00 | 0.67 | 0.35 | 94 | 1007.6 |
| 20260509153107 | 50 | 0 | 0.0 | 5.0 | 0.00 | 0.67 | 0.35 | 94 | 1007.6 |
| 20260509151604 | 50 | 0 | 0.0 | 2.0 | 0.00 | 0.67 | 0.35 | 94 | 1007.7 |
| 20260509150056 | 49 | 0 | 0.0 | 4.0 | 0.00 | 0.67 | 0.35 | 94 | 1007.7 |
| 20260509144556 | 49 | 292 | 0.0 | 5.0 | 0.00 | 0.67 | 0.35 | 94 | 1007.7 |
| 20260509143108 | 49 | 217 | 0.0 | 4.0 | 0.00 | 0.67 | 0.35 | 95 | 1007.6 |
| 20260509141556 | 49 | 131 | 1.0 | 6.0 | 0.00 | 0.67 | 0.35 | 95 | 1007.6 |
| 20260509140054 | 49 | 181 | 1.0 | 5.0 | 0.00 | 0.67 | 0.35 | 95 | 1007.4 |
| 20260509134554 | 49 | 267 | 0.0 | 4.0 | 0.00 | 0.67 | 0.35 | 95 | 1007.5 |
| 20260509133106 | 48 | 110 | 0.0 | 3.0 | 0.00 | 0.67 | 0.35 | 95 | 1007.7 |
| 20260509131551 | 48 | 69 | 0.0 | 1.0 | 0.00 | 0.67 | 0.35 | 95 | 1007.8 |
| 20260509130056 | 48 | 69 | 0.0 | 2.0 | 0.00 | 0.67 | 0.35 | 95 | 1007.8 |
| 20260509124553 | 48 | 0 | 0.0 | 2.0 | 0.00 | 0.67 | 0.35 | 95 | 1008.0 |
| 20260509123052 | 47 | 0 | 0.0 | 2.0 | 0.00 | 0.67 | 0.35 | 95 | 1008.0 |
| 20260509121553 | 47 | 0 | 0.0 | 1.0 | 0.00 | 0.67 | 0.35 | 95 | 1008.2 |
| 20260509120055 | 47 | 257 | 0.0 | 1.0 | 0.00 | 0.67 | 0.35 | 95 | 1008.3 |
| 20260509114555 | 47 | 0 | 0.0 | 1.0 | 0.01 | 0.67 | 0.35 | 94 | 1008.2 |
| 20260509113052 | 47 | 0 | 0.0 | 1.0 | 0.01 | 0.67 | 0.35 | 94 | 1008.2 |
| 20260509111554 | 47 | 0 | 0.0 | 2.0 | 0.02 | 0.67 | 0.35 | 94 | 1008.2 |
| 20260509110052 | 47 | 0 | 0.0 | 0.0 | 0.05 | 0.67 | 0.35 | 94 | 1008.0 |
| 20260509104607 | 47 | 0 | 0.0 | 1.0 | 0.07 | 0.66 | 0.34 | 94 | 1008.3 |
| 20260509103104 | 47 | 0 | 0.0 | 1.0 | 0.10 | 0.66 | 0.34 | 94 | 1008.2 |
| 20260509101556 | 47 | 0 | 0.0 | 0.0 | 0.10 | 0.65 | 0.33 | 94 | 1008.2 |
| 20260509100051 | 47 | 0 | 0.0 | 1.0 | 0.09 | 0.62 | 0.30 | 94 | 1008.2 |
| 20260509094554 | 47 | 0 | 0.0 | 1.0 | 0.10 | 0.58 | 0.27 | 94 | 1008.4 |
| 20260509093054 | 47 | 158 | 0.0 | 3.0 | 0.07 | 0.56 | 0.24 | 94 | 1008.4 |
| 20260509091552 | 47 | 0 | 0.0 | 1.0 | 0.08 | 0.55 | 0.23 | 94 | 1008.4 |
| 20260509090058 | 47 | 126 | 1.0 | 4.0 | 0.08 | 0.52 | 0.21 | 94 | 1008.2 |
| 20260509084559 | 47 | 360 | 0.0 | 2.0 | 0.05 | 0.49 | 0.17 | 94 | 1008.5 |
| 20260509083054 | 47 | 0 | 0.0 | 0.0 | 0.06 | 0.49 | 0.17 | 94 | 1008.2 |
| 20260509081556 | 46 | 0 | 0.0 | 2.0 | 0.05 | 0.47 | 0.15 | 94 | 1008.1 |
| 20260509080051 | 46 | 0 | 0.0 | 1.0 | 0.04 | 0.45 | 0.13 | 94 | 1008.3 |
| 20260509074553 | 46 | 0 | 0.0 | 0.0 | 0.04 | 0.44 | 0.12 | 94 | 1008.4 |
| 20260509073059 | 47 | 0 | 0.0 | 1.0 | 0.05 | 0.43 | 0.11 | 94 | 1008.3 |
| 20260509071600 | 46 | 58 | 0.0 | 1.0 | 0.04 | 0.42 | 0.10 | 94 | 1008.5 |
| 20260509070059 | 47 | 58 | 0.0 | 1.0 | 0.03 | 0.41 | 0.09 | 94 | 1008.7 |
| 20260509064551 | 47 | 0 | 0.0 | 2.0 | 0.03 | 0.40 | 0.08 | 94 | 1008.9 |
| 20260509063111 | 47 | 0 | 0.0 | 3.0 | 0.01 | 0.38 | 0.06 | 93 | 1009.2 |
| 20260509061616 | 47 | 210 | 0.0 | 1.0 | 0.04 | 0.38 | 0.06 | 93 | 1009.3 |
| 20260509060112 | 47 | 0 | 0.0 | 2.0 | 0.04 | 0.38 | 0.06 | 93 | 1009.4 |
| 20260509054555 | 47 | 0 | 0.0 | 2.0 | 0.03 | 0.37 | 0.05 | 93 | 1009.7 |
| 20260509053055 | 47 | 136 | 0.0 | 3.0 | 0.03 | 0.37 | 0.05 | 93 | 1010.2 |
| 20260509051556 | 47 | 26 | 0.0 | 2.0 | 0.00 | 0.34 | 0.02 | 93 | 1010.4 |
| 20260509050057 | 47 | 76 | 0.0 | 2.0 | 0.02 | 0.34 | 0.02 | 93 | 1010.2 |
| 20260509044554 | 47 | 0 | 0.0 | 3.0 | 0.03 | 0.34 | 0.02 | 93 | 1010.3 |
| 20260509043053 | 47 | 23 | 0.0 | 2.0 | 0.04 | 0.34 | 0.02 | 93 | 1010.4 |
| 20260509041559 | 47 | 0 | 0.0 | 1.0 | 0.03 | 0.33 | 0.01 | 93 | 1010.6 |
| 20260509040054 | 47 | 0 | 0.0 | 1.0 | 0.03 | 0.32 | 0.00 | 93 | 1010.8 |
| 20260509034556 | 47 | 0 | 0.0 | 1.0 | 0.03 | 0.31 | 0.31 | 93 | 1010.8 |
| 20260509033056 | 47 | 0 | 0.0 | 1.0 | 0.05 | 0.30 | 0.30 | 92 | 1011.0 |
| 20260509031556 | 47 | 0 | 0.0 | 1.0 | 0.10 | 0.30 | 0.30 | 92 | 1010.9 |
| 20260509030059 | 47 | 0 | 0.0 | 2.0 | 0.14 | 0.29 | 0.29 | 92 | 1011.2 |
| 20260509024556 | 47 | 0 | 0.0 | 1.0 | 0.17 | 0.28 | 0.28 | 92 | 1011.3 |
| 20260509023100 | 47 | 0 | 0.0 | 1.0 | 0.18 | 0.25 | 0.25 | 91 | 1011.3 |
| 20260509021557 | 47 | 0 | 0.0 | 1.0 | 0.16 | 0.20 | 0.20 | 91 | 1011.4 |
| 20260509014558 | 48 | 0 | 0.0 | 2.0 | 0.09 | 0.11 | 0.11 | 91 | 1011.1 |
| 20260509013058 | 48 | 0 | 0.0 | 2.0 | 0.05 | 0.07 | 0.07 | 91 | 1011.1 |
| 20260509011554 | 49 | 0 | 0.0 | 1.0 | 0.02 | 0.04 | 0.04 | 90 | 1011.0 |
| 20260509010054 | 49 | 0 | 0.0 | 1.0 | 0.02 | 0.02 | 0.02 | 90 | 1010.7 |
| 20260509004602 | 49 | 0 | 0.0 | 0.0 | 0.02 | 0.02 | 0.02 | 90 | 1010.7 |
| 20260509003053 | 49 | 0 | 0.0 | 1.0 | 0.02 | 0.02 | 0.02 | 89 | 1010.7 |
| 20260509001554 | 50 | 0 | 0.0 | 0.0 | 0.02 | 0.02 | 0.02 | 89 | 1010.6 |
| 20260509000056 | 50 | 0 | 0.0 | 1.0 | 0.00 | 0.00 | 0.00 | 88 | 1010.4 |
| 20260508234557 | 50 | 0 | 0.0 | 1.0 | 0.00 | 0.00 | 0.00 | 87 | 1010.4 |
| 20260508233057 | 50 | 0 | 0.0 | 2.0 | 0.00 | 0.00 | 0.00 | 87 | 1010.2 |
| 20260508231605 | 50 | 0 | 0.0 | 3.0 | 0.00 | 0.00 | 0.00 | 86 | 1010.2 |
| 20260508230100 | 51 | 0 | 0.0 | 4.0 | 0.00 | 0.00 | 0.00 | 84 | 1010.1 |
| 20260508224601 | 51 | 68 | 1.0 | 7.0 | 0.00 | 0.00 | 0.00 | 82 | 1010.3 |
| 20260508223054 | 52 | 271 | 2.0 | 9.0 | 0.00 | 0.00 | 0.00 | 78 | 1010.0 |
| 20260508221559 | 53 | 148 | 0.0 | 9.0 | 0.00 | 0.00 | 0.00 | 76 | 1009.9 |
| 20260508220101 | 54 | 236 | 1.0 | 4.0 | 0.00 | 0.00 | 0.00 | 71 | 1010.0 |
| 20260508214558 | 54 | 229 | 1.0 | 9.0 | 0.00 | 0.00 | 0.00 | 71 | 1009.7 |
| 20260508213101 | 54 | 261 | 2.0 | 7.0 | 0.00 | 0.00 | 0.00 | 68 | 1009.6 |
| 20260508211557 | 55 | 132 | 2.0 | 11.0 | 0.00 | 0.00 | 0.00 | 67 | 1009.7 |
| 20260508210055 | 56 | 311 | 1.0 | 8.0 | 0.00 | 0.00 | 0.00 | 63 | 1009.2 |
| 20260508204556 | 58 | 189 | 2.0 | 7.0 | 0.00 | 0.00 | 0.00 | 57 | 1009.0 |
| 20260508203100 | 59 | 223 | 2.0 | 11.0 | 0.00 | 0.00 | 0.00 | 56 | 1009.0 |